Time;durP1;ratioP1;P1;durP2;ratioP2;P2;SDS_P1;SDS_P2;PMS_P1;PMS_P2;Temp;Humidity;BMP_temperature;BMP_pressure;BME280_temperature;BME280_humidity;BME280_pressure;Samples;Min_cycle;Max_cycle;Signal;HPM_P1;HPM_P2
2022/04/30 00:00:34;;;;;;;48.17;21.58;;;;;;;12.11;58.51;100585.19;4362311;32;33630;-87
2022/04/30 00:03:03;;;;;;;39.58;19.87;;;;;;;12.07;58.74;100586.22;4363350;32;34465;-87
2022/04/30 00:05:33;;;;;;;50.78;22.48;;;;;;;12.12;58.73;100589.56;4360619;32;32356;-87
2022/04/30 00:08:03;;;;;;;112.10;45.08;;;;;;;12.13;58.61;100580.69;4357907;32;34665;-87
2022/04/30 00:10:37;;;;;;;159.70;65.40;;;;;;;12.27;58.42;100578.38;4357699;32;32168;-87
2022/04/30 00:13:07;;;;;;;118.90;47.80;;;;;;;12.14;58.62;100579.75;4376233;32;33346;-87
2022/04/30 00:15:36;;;;;;;99.07;41.65;;;;;;;12.25;58.37;100583.75;4374816;32;34289;-87
2022/04/30 00:18:11;;;;;;;124.85;49.85;;;;;;;12.23;58.26;100579.41;4376374;32;32825;-87
2022/04/30 00:20:45;;;;;;;96.90;34.13;;;;;;;12.39;57.51;100580.56;4356583;32;32897;-87
2022/04/30 00:23:20;;;;;;;112.65;41.65;;;;;;;12.22;57.92;100577.69;4356414;32;32788;-87
2022/04/30 00:25:54;;;;;;;82.22;30.00;;;;;;;12.17;58.15;100579.66;4366947;32;33962;-87
2022/04/30 00:28:25;;;;;;;99.20;37.53;;;;;;;12.20;57.95;100582.16;4374534;32;33489;-87
2022/04/30 00:30:54;;;;;;;147.02;48.60;;;;;;;12.18;57.77;100582.22;4359620;32;33131;-87
2022/04/30 00:33:23;;;;;;;248.68;91.75;;;;;;;12.33;57.25;100579.91;4362896;32;33498;-87
2022/04/30 00:35:52;;;;;;;438.65;153.70;;;;;;;12.26;57.18;100579.31;4374404;32;33875;-87
2022/04/30 00:38:20;;;;;;;393.83;135.65;;;;;;;12.27;57.00;100587.19;4373508;32;34158;-87
2022/04/30 00:40:48;;;;;;;353.55;124.55;;;;;;;12.33;56.74;100580.78;4360822;32;33397;-87
2022/04/30 00:43:16;;;;;;;242.00;81.80;;;;;;;12.10;57.29;100578.16;4373737;32;33754;-87
2022/04/30 00:45:48;;;;;;;211.68;72.82;;;;;;;12.00;57.67;100580.28;4374573;32;34155;-87
2022/04/30 00:48:16;;;;;;;275.23;89.93;;;;;;;11.84;58.19;100581.75;4375540;32;32860;-87
2022/04/30 00:50:45;;;;;;;265.37;85.38;;;;;;;11.79;58.23;100590.69;4374498;32;33605;-87
2022/04/30 00:53:17;;;;;;;299.67;101.40;;;;;;;11.92;57.69;100591.16;4374431;32;33149;-87
2022/04/30 00:55:47;;;;;;;255.50;80.80;;;;;;;11.65;58.38;100581.53;4374666;32;34510;-87
2022/04/30 00:58:18;;;;;;;200.10;69.53;;;;;;;11.82;57.96;100589.78;4362215;32;32410;-87
2022/04/30 01:00:50;;;;;;;111.37;37.38;;;;;;;11.56;58.54;100592.44;4386106;32;32974;-87
2022/04/30 01:03:20;;;;;;;122.10;40.75;;;;;;;11.75;57.91;100596.16;4374324;32;33496;-86
2022/04/30 01:05:49;;;;;;;110.53;34.22;;;;;;;11.41;58.88;100589.41;4360392;32;32109;-87
2022/04/30 01:08:18;;;;;;;51.28;16.52;;;;;;;11.59;58.37;100593.19;4362271;32;32134;-87
2022/04/30 01:10:46;;;;;;;89.45;29.27;;;;;;;11.77;57.60;100591.66;4372061;32;34395;-87
2022/04/30 01:13:14;;;;;;;121.43;41.20;;;;;;;11.46;58.34;100589.25;4360814;32;33290;-87
2022/04/30 01:15:43;;;;;;;154.70;52.17;;;;;;;11.33;58.66;100590.59;4361201;32;32454;-87
2022/04/30 01:18:12;;;;;;;199.52;64.80;;;;;;;11.25;58.93;100598.75;4363169;32;32799;-87
2022/04/30 01:20:46;;;;;;;230.15;83.72;;;;;;;11.42;58.23;100596.41;4373229;32;32726;-87
2022/04/30 01:23:16;;;;;;;143.75;48.63;;;;;;;11.39;58.28;100580.66;4362493;32;33238;-87
2022/04/30 01:25:46;;;;;;;49.70;20.83;;;;;;;11.62;57.73;100573.69;4359506;32;33387;-87
2022/04/30 01:28:14;;;;;;;43.42;17.42;;;;;;;11.45;58.03;100579.59;4375955;32;33200;-87
2022/04/30 01:30:42;;;;;;;64.05;20.92;;;;;;;11.36;58.27;100583.41;4374538;32;33627;-87
2022/04/30 01:38:45;;;;;;;26.90;11.23;;;;;;;11.27;58.42;100584.59;4373711;32;33303;-87
2022/04/30 01:41:13;;;;;;;52.55;17.42;;;;;;;11.26;58.37;100579.37;4372278;32;33966;-87
2022/04/30 01:43:42;;;;;;;70.30;20.35;;;;;;;11.22;58.39;100583.03;4361845;32;34218;-87
2022/04/30 01:46:10;;;;;;;149.48;45.60;;;;;;;11.23;58.22;100576.81;4384370;32;33629;-87
2022/04/30 01:48:38;;;;;;;196.73;62.75;;;;;;;11.17;58.30;100575.25;4362765;32;34028;-87
2022/04/30 01:51:06;;;;;;;161.95;53.15;;;;;;;11.02;58.74;100566.06;4376089;32;34351;-87
2022/04/30 01:53:36;;;;;;;97.85;32.97;;;;;;;11.09;58.49;100563.19;4364025;32;34046;-87
2022/04/30 01:56:04;;;;;;;63.87;21.62;;;;;;;10.96;58.87;100565.38;4363880;32;33740;-87
2022/04/30 01:58:33;;;;;;;37.17;13.50;;;;;;;11.01;58.75;100564.34;4375440;32;33006;-87
2022/04/30 02:01:07;;;;;;;26.45;10.48;;;;;;;10.94;58.90;100565.44;4364167;32;32474;-87
2022/04/30 02:03:35;;;;;;;25.42;9.80;;;;;;;10.92;58.85;100564.62;4362138;32;32619;-87
2022/04/30 02:06:04;;;;;;;18.48;6.75;;;;;;;10.79;59.28;100558.03;4374148;32;33823;-87
2022/04/30 02:08:33;;;;;;;21.65;9.20;;;;;;;10.63;59.62;100562.06;4362677;32;32274;-87
2022/04/30 02:11:01;;;;;;;36.70;11.45;;;;;;;10.79;58.99;100551.88;4350715;32;32740;-87
2022/04/30 02:13:31;;;;;;;34.63;11.93;;;;;;;10.89;58.61;100559.44;4371000;32;33908;-87
2022/04/30 02:16:00;;;;;;;26.40;10.07;;;;;;;10.79;58.80;100559.81;4362012;32;33178;-87
2022/04/30 02:18:32;;;;;;;28.90;9.00;;;;;;;10.76;59.20;100558.09;4349149;32;33507;-87
2022/04/30 02:21:01;;;;;;;29.30;12.35;;;;;;;10.81;59.07;100561.47;4344626;32;32840;-87
2022/04/30 02:23:30;;;;;;;35.63;12.18;;;;;;;10.60;59.51;100552.47;4361407;32;33762;-87
2022/04/30 02:26:29;;;;;;;42.72;13.00;;;;;;;10.67;59.36;100551.34;4368829;32;34651;-92
2022/04/30 02:29:10;;;;;;;59.95;18.35;;;;;;;10.62;59.47;100555.03;4354480;32;32792;-93
2022/04/30 02:32:03;;;;;;;76.60;24.45;;;;;;;10.65;59.30;100554.97;4375377;32;32743;-92
2022/04/30 02:34:45;;;;;;;69.95;21.85;;;;;;;10.65;59.02;100550.53;4365216;32;32746;-93
2022/04/30 02:37:37;;;;;;;56.28;19.25;;;;;;;10.64;58.95;100553.25;4341016;33;32668;-94
2022/04/30 02:40:17;;;;;;;62.97;16.87;;;;;;;10.29;60.08;100549.91;4369244;32;32304;-93
2022/04/30 02:43:11;;;;;;;49.70;14.35;;;;;;;10.43;59.64;100549.47;4375763;32;32817;-92
2022/04/30 02:45:51;;;;;;;40.90;14.07;;;;;;;10.45;59.54;100545.91;4370612;32;32980;-91
2022/04/30 02:48:42;;;;;;;29.87;11.23;;;;;;;10.24;60.23;100538.63;4397146;32;32247;-93
2022/04/30 02:51:22;;;;;;;19.80;8.75;;;;;;;10.26;60.01;100539.47;4346172;32;32164;-92
2022/04/30 02:54:15;;;;;;;21.30;7.03;;;;;;;10.30;59.62;100541.06;4392666;32;32539;-91
2022/04/30 02:56:54;;;;;;;16.92;7.53;;;;;;;10.14;60.09;100531.87;4347262;32;33167;-92
2022/04/30 02:59:55;;;;;;;13.27;5.00;;;;;;;10.19;59.84;100529.94;4332271;33;33452;-92
2022/04/30 03:02:51;;;;;;;7.97;4.12;;;;;;;10.00;60.44;100533.13;4342870;32;34719;-87
2022/04/30 03:05:20;;;;;;;9.68;4.12;;;;;;;9.72;61.81;100521.66;4337541;33;33746;-86
2022/04/30 03:07:48;;;;;;;8.13;5.00;;;;;;;10.02;60.61;100527.84;4352247;32;33446;-86
2022/04/30 03:10:17;;;;;;;5.40;3.87;;;;;;;9.94;60.65;100530.69;4351189;32;32378;-86
2022/04/30 03:12:48;;;;;;;4.20;2.97;;;;;;;9.87;61.09;100529.13;4356905;32;32619;-86
2022/04/30 03:15:22;;;;;;;7.62;3.30;;;;;;;9.94;60.66;100528.06;4343283;33;32991;-86
2022/04/30 03:23:31;;;;;;;6.32;3.55;;;;;;;9.86;60.63;100530.03;4349685;32;32130;-86
2022/04/30 03:25:59;;;;;;;6.22;4.28;;;;;;;9.90;60.39;100534.31;4369955;32;32720;-86
2022/04/30 03:28:27;;;;;;;11.80;4.97;;;;;;;9.94;60.18;100530.69;4354584;32;32604;-86
2022/04/30 03:30:56;;;;;;;11.35;5.62;;;;;;;9.93;60.20;100528.97;4370307;32;32755;-86
2022/04/30 03:33:26;;;;;;;9.68;5.03;;;;;;;9.87;60.46;100536.19;4362490;32;33224;-86
2022/04/30 03:35:54;;;;;;;8.65;3.97;;;;;;;9.77;60.95;100540.84;4345961;32;33600;-86
2022/04/30 03:38:22;;;;;;;5.43;4.05;;;;;;;9.81;60.69;100534.59;4353789;32;33666;-86
2022/04/30 03:40:50;;;;;;;8.60;4.85;;;;;;;9.73;60.99;100536.56;4357332;32;32673;-86
2022/04/30 03:43:20;;;;;;;6.90;4.20;;;;;;;9.82;60.59;100533.66;4362921;32;34173;-86
2022/04/30 03:45:52;;;;;;;13.70;4.28;;;;;;;9.81;60.57;100531.09;4363854;32;33194;-86
2022/04/30 03:48:20;;;;;;;9.50;5.03;;;;;;;9.60;61.50;100540.47;4349553;32;33022;-86
2022/04/30 03:50:48;;;;;;;9.45;5.00;;;;;;;9.80;60.79;100538.13;4369605;32;33293;-86
2022/04/30 03:53:16;;;;;;;11.30;4.65;;;;;;;9.79;60.83;100536.41;4382384;32;32591;-86
2022/04/30 03:55:44;;;;;;;9.02;5.45;;;;;;;9.74;60.88;100530.41;4353156;32;33492;-86
2022/04/30 03:58:13;;;;;;;8.48;4.75;;;;;;;9.73;60.99;100536.56;4352946;32;33315;-86
2022/04/30 04:00:40;;;;;;;10.23;4.22;;;;;;;9.72;61.17;100526.94;4352379;32;32404;-87
2022/04/30 04:03:09;;;;;;;6.22;3.53;;;;;;;9.67;61.87;100534.97;4332727;33;32259;-86
2022/04/30 04:05:38;;;;;;;6.40;3.90;;;;;;;9.79;61.58;100531.16;4346317;33;34240;-87
2022/04/30 04:08:11;;;;;;;5.60;3.47;;;;;;;9.75;61.61;100535.63;4358865;32;33277;-86
2022/04/30 04:10:41;;;;;;;5.37;4.10;;;;;;;9.80;61.45;100529.38;4346072;32;32754;-86
2022/04/30 04:18:44;;;;;;;5.97;4.57;;;;;;;9.98;61.96;100542.88;4335914;33;34722;-87
2022/04/30 04:21:12;;;;;;;6.15;3.95;;;;;;;10.16;61.37;100545.87;4358471;32;33509;-86
2022/04/30 04:26:27;;;;;;;6.07;3.80;;;;;;;10.43;60.84;100545.06;4366459;32;32439;-86
2022/04/30 04:28:57;;;;;;;10.02;4.10;;;;;;;10.39;61.21;100539.91;4334160;33;34458;-86
2022/04/30 04:31:25;;;;;;;9.00;4.93;;;;;;;10.57;60.63;100543.78;4346152;33;32591;-86
2022/04/30 04:33:59;;;;;;;7.22;4.32;;;;;;;10.66;60.13;100551.41;4345376;32;33092;-86
2022/04/30 04:36:27;;;;;;;10.35;5.18;;;;;;;10.77;59.71;100543.97;4346375;32;33832;-85
2022/04/30 04:38:56;;;;;;;5.37;4.47;;;;;;;11.00;59.69;100549.37;4357213;32;32489;-86
2022/04/30 04:41:25;;;;;;;8.13;4.80;;;;;;;10.88;60.01;100551.56;4345766;33;33439;-86
2022/04/30 04:43:53;;;;;;;8.48;4.55;;;;;;;10.94;60.07;100546.09;4346709;32;32810;-86
2022/04/30 04:46:21;;;;;;;14.07;4.50;;;;;;;10.76;60.80;100551.03;4333473;33;32625;-86
2022/04/30 04:48:53;;;;;;;8.23;4.37;;;;;;;11.07;60.09;100547.41;4346490;32;33928;-87
2022/04/30 04:51:22;;;;;;;8.57;5.35;;;;;;;11.49;59.40;100544.19;4357733;32;32796;-86
2022/04/30 04:53:50;;;;;;;14.87;5.57;;;;;;;11.78;59.13;100545.78;4334210;33;33283;-86
2022/04/30 04:56:20;;;;;;;8.60;4.50;;;;;;;12.00;59.04;100546.72;4357325;32;33159;-86
2022/04/30 04:58:49;;;;;;;12.68;5.10;;;;;;;12.07;59.26;100546.50;4333136;33;33127;-86
2022/04/30 05:01:18;;;;;;;6.07;5.15;;;;;;;12.32;58.84;100541.13;4348226;32;33904;-86
2022/04/30 05:03:52;;;;;;;9.55;4.85;;;;;;;12.26;58.41;100544.88;4363091;32;32853;-86
2022/04/30 05:06:22;;;;;;;11.50;5.90;;;;;;;12.19;58.40;100548.66;4370580;32;33640;-86
2022/04/30 05:08:53;;;;;;;9.40;6.75;;;;;;;12.43;58.68;100545.06;4374004;32;33959;-86
2022/04/30 05:11:26;;;;;;;10.13;4.82;;;;;;;12.43;59.09;100542.41;4358548;32;33903;-87
2022/04/30 05:13:55;;;;;;;11.93;5.45;;;;;;;12.88;59.31;100538.84;4346296;32;32048;-86
2022/04/30 05:16:25;;;;;;;10.02;5.50;;;;;;;13.22;59.03;100540.12;4347385;32;33267;-86
2022/04/30 05:18:56;;;;;;;10.23;5.55;;;;;;;12.71;59.27;100539.53;4345481;32;32618;-86
2022/04/30 05:21:30;;;;;;;10.05;5.37;;;;;;;12.85;57.97;100541.63;4346699;32;33207;-86
2022/04/30 05:23:58;;;;;;;9.65;4.75;;;;;;;13.19;57.05;100542.84;4376762;32;32621;-86
2022/04/30 05:26:43;;;;;;;6.72;4.50;;;;;;;13.39;53.39;100536.72;4348013;32;33940;-86
2022/04/30 05:29:24;;;;;;;4.72;4.00;;;;;;;13.63;52.56;100534.81;4362511;32;32316;-86
2022/04/30 05:32:00;;;;;;;7.05;4.72;;;;;;;14.00;50.57;100534.81;4377990;32;33026;-87
2022/04/30 05:34:28;;;;;;;10.13;5.32;;;;;;;14.10;50.83;100537.94;4369183;32;32379;-87
2022/04/30 05:36:58;;;;;;;6.75;4.53;;;;;;;14.20;50.41;100538.37;4345096;32;34574;-87
2022/04/30 05:39:27;;;;;;;7.45;4.30;;;;;;;14.37;49.27;100542.88;4346977;32;32969;-86
2022/04/30 05:41:55;;;;;;;6.57;4.22;;;;;;;15.03;47.33;100536.09;4357702;32;32231;-86
2022/04/30 05:44:26;;;;;;;5.68;4.22;;;;;;;15.28;46.53;100537.50;4347245;33;33350;-92
2022/04/30 05:47:12;;;;;;;3.97;3.47;;;;;;;15.51;45.73;100531.84;4363200;32;33497;-91
2022/04/30 05:53:09;;;;;;;5.82;3.83;;;;;;;16.23;42.67;100537.78;4355921;32;33772;-91
2022/04/30 05:55:53;;;;;;;8.35;4.35;;;;;;;16.18;43.45;100532.72;4338226;32;33622;-92
2022/04/30 05:58:36;;;;;;;7.30;3.65;;;;;;;15.79;43.25;100531.28;4346233;32;33129;-90
2022/04/30 06:01:29;;;;;;;7.35;3.90;;;;;;;16.77;42.94;100528.53;4329221;33;33445;-90
2022/04/30 06:04:14;;;;;;;4.47;4.07;;;;;;;16.53;41.38;100536.09;4336926;33;32910;-92
2022/04/30 06:07:10;;;;;;;7.25;3.80;;;;;;;16.64;40.66;100533.66;4376293;32;33291;-92
2022/04/30 06:09:53;;;;;;;5.45;3.83;;;;;;;16.91;41.25;100532.19;4330161;33;32905;-92
2022/04/30 06:12:36;;;;;;;6.78;3.58;;;;;;;16.79;41.04;100531.09;4356592;32;33134;-92
2022/04/30 06:15:22;;;;;;;7.65;3.62;;;;;;;17.04;39.36;100531.41;4332387;32;33175;-91
2022/04/30 06:18:05;;;;;;;4.15;3.20;;;;;;;17.30;39.77;100531.66;4366061;32;33315;-90
2022/04/30 06:21:01;;;;;;;6.70;3.55;;;;;;;17.20;38.12;100531.34;4360961;32;36386;-90
2022/04/30 06:23:45;;;;;;;5.45;4.15;;;;;;;17.37;38.23;100532.97;4356807;32;34040;-92
2022/04/30 06:26:39;;;;;;;5.47;4.00;;;;;;;17.44;38.89;100531.66;4356000;32;35126;-86
2022/04/30 06:29:09;;;;;;;5.43;3.60;;;;;;;17.35;38.47;100534.91;4359168;32;32538;-86
2022/04/30 06:31:44;;;;;;;5.82;4.28;;;;;;;17.65;37.25;100535.69;4350933;32;33940;-86
2022/04/30 06:34:13;;;;;;;7.32;4.03;;;;;;;17.64;38.98;100536.66;4327222;33;33504;-86
2022/04/30 06:36:44;;;;;;;5.55;3.90;;;;;;;17.27;38.80;100537.16;4355929;32;32802;-86
2022/04/30 06:39:22;;;;;;;12.25;4.40;;;;;;;17.82;38.98;100533.84;4352484;32;33170;-86
2022/04/30 06:41:52;;;;;;;7.55;4.10;;;;;;;17.70;38.17;100530.06;4352897;32;32167;-86
2022/04/30 06:44:36;;;;;;;5.43;4.00;;;;;;;17.77;38.25;100530.59;4359880;32;34803;-86
2022/04/30 06:47:10;;;;;;;4.37;3.67;;;;;;;17.75;37.14;100527.16;4340047;32;34440;-86
2022/04/30 06:49:38;;;;;;;4.40;3.67;;;;;;;17.83;38.18;100528.37;4359980;32;33218;-86
2022/04/30 06:52:09;;;;;;;4.95;3.92;;;;;;;17.65;38.23;100526.81;4348188;32;34219;-86
2022/04/30 06:57:47;;;;;;;5.03;3.67;;;;;;;17.76;38.06;100524.41;4347422;32;33817;-86
2022/04/30 07:03:15;;;;;;;4.22;3.80;;;;;;;17.85;38.76;100528.28;4354757;32;33923;-86
2022/04/30 07:05:51;;;;;;;5.53;3.65;;;;;;;18.27;37.80;100518.50;4345511;32;34601;-85
2022/04/30 07:08:28;;;;;;;5.80;4.68;;;;;;;18.65;37.06;100529.41;4358580;32;33635;-86
2022/04/30 07:11:02;;;;;;;10.40;4.68;;;;;;;18.11;37.10;100534.69;4346768;32;32139;-86
2022/04/30 07:13:37;;;;;;;7.50;3.97;;;;;;;18.03;37.68;100521.78;4339522;32;33172;-86
2022/04/30 07:16:06;;;;;;;5.93;4.10;;;;;;;18.44;37.91;100526.31;4356197;32;32905;-85
2022/04/30 07:18:34;;;;;;;10.20;4.70;;;;;;;18.52;37.57;100526.69;4357491;32;32527;-86
2022/04/30 07:21:02;;;;;;;7.03;4.70;;;;;;;18.01;37.80;100520.19;4343603;32;32352;-86
2022/04/30 07:23:36;;;;;;;5.28;4.72;;;;;;;18.38;37.53;100521.38;4358986;32;35639;-86
2022/04/30 07:26:05;;;;;;;7.50;4.80;;;;;;;18.18;37.57;100514.59;4365557;32;33330;-86
2022/04/30 07:28:38;;;;;;;6.25;4.47;;;;;;;18.39;36.90;100513.25;4370081;32;33538;-86
2022/04/30 07:31:08;;;;;;;8.95;5.95;;;;;;;18.51;37.34;100522.28;4358458;32;33439;-86
2022/04/30 07:33:53;;;;;;;8.13;4.32;;;;;;;18.71;37.87;100520.16;4369452;32;34391;-86
2022/04/30 07:36:26;;;;;;;6.07;4.03;;;;;;;19.03;36.95;100512.63;4354801;32;33678;-86
2022/04/30 07:38:58;;;;;;;6.93;3.80;;;;;;;19.19;35.77;100508.84;4359256;32;32665;-86
2022/04/30 07:41:28;;;;;;;6.53;4.90;;;;;;;18.55;37.83;100515.75;4366646;32;33417;-86
2022/04/30 07:43:59;;;;;;;5.37;4.55;;;;;;;18.79;39.65;100509.78;4350715;32;33128;-86
2022/04/30 07:46:36;;;;;;;5.70;4.37;;;;;;;19.15;36.59;100501.97;4369080;32;33196;-86
2022/04/30 07:49:17;;;;;;;7.53;5.00;;;;;;;19.23;37.04;100509.50;4373577;32;34672;-86
2022/04/30 07:54:31;;;;;;;8.60;4.65;;;;;;;20.35;35.78;100504.25;4366929;32;33515;-85
2022/04/30 07:56:59;;;;;;;14.30;5.68;;;;;;;19.54;35.66;100507.34;4367126;32;33981;-86
2022/04/30 07:59:34;;;;;;;14.25;5.22;;;;;;;19.65;37.53;100494.97;4342466;32;35570;-86
2022/04/30 08:02:04;;;;;;;6.55;4.40;;;;;;;19.72;36.39;100500.75;4369009;32;33465;-86
2022/04/30 08:04:33;;;;;;;6.53;4.70;;;;;;;19.78;36.20;100494.09;4355217;32;33881;-86
2022/04/30 08:07:09;;;;;;;5.28;4.25;;;;;;;20.05;35.63;100494.81;4357592;32;33639;-86
2022/04/30 08:09:38;;;;;;;6.78;4.37;;;;;;;19.93;36.41;100493.84;4356268;32;33145;-86
2022/04/30 08:12:09;;;;;;;6.32;4.60;;;;;;;20.23;34.25;100494.44;4373400;32;32002;-85
2022/04/30 08:14:38;;;;;;;5.75;4.18;;;;;;;20.00;35.22;100499.62;4363199;32;32860;-85
2022/04/30 08:17:13;;;;;;;6.75;4.10;;;;;;;19.90;35.84;100498.59;4344257;32;32562;-86
2022/04/30 08:19:42;;;;;;;6.30;4.20;;;;;;;19.88;36.03;100493.31;4373782;32;34252;-86
2022/04/30 08:22:15;;;;;;;7.15;4.37;;;;;;;20.16;35.76;100499.38;4353751;32;33557;-86
2022/04/30 08:24:46;;;;;;;5.60;4.32;;;;;;;20.24;35.15;100498.84;4352417;32;33754;-86
2022/04/30 08:27:17;;;;;;;6.20;3.80;;;;;;;20.54;33.51;100498.44;4328748;32;32771;-86
2022/04/30 08:29:48;;;;;;;6.40;3.90;;;;;;;20.53;35.45;100486.84;4331510;32;34016;-86
2022/04/30 08:34:53;;;;;;;4.20;3.58;;;;;;;20.44;34.88;100490.19;4340417;32;33918;-85
2022/04/30 08:37:22;;;;;;;6.03;3.22;;;;;;;20.62;32.71;100496.03;4340764;33;32499;-86
2022/04/30 08:39:50;;;;;;;7.70;2.83;;;;;;;20.80;32.11;100483.94;4337959;32;32651;-86
2022/04/30 08:42:23;;;;;;;3.78;3.37;;;;;;;21.10;33.39;100490.63;4338894;32;32618;-86
2022/04/30 08:44:55;;;;;;;5.18;3.28;;;;;;;20.84;31.08;100481.84;4351383;32;33643;-85
2022/04/30 08:47:29;;;;;;;4.20;2.97;;;;;;;20.77;31.27;100488.66;4328314;32;34073;-86
2022/04/30 08:49:57;;;;;;;;;;;;;;;20.59;32.01;100486.38;4327319;32;33011;-86
2022/04/30 08:52:33;;;;;;;5.70;2.70;;;;;;;21.38;31.87;100484.00;4335636;32;33446;-86
2022/04/30 08:55:08;;;;;;;5.00;3.33;;;;;;;21.20;31.23;100484.41;4329758;32;32371;-86
2022/04/30 08:57:37;;;;;;;8.25;3.10;;;;;;;21.56;30.48;100476.34;4352274;32;33612;-86
2022/04/30 09:00:07;;;;;;;3.80;3.35;;;;;;;21.42;30.26;100472.91;4340286;32;32476;-86
2022/04/30 09:02:55;;;;;;;4.80;3.15;;;;;;;21.41;29.95;100483.75;4338511;32;32602;-86
2022/04/30 09:05:34;;;;;;;6.78;3.28;;;;;;;21.62;30.10;100465.94;4340895;32;33297;-86
2022/04/30 09:08:05;;;;;;;4.00;3.03;;;;;;;22.13;28.52;100465.47;4328371;33;34051;-86
2022/04/30 09:10:42;;;;;;;3.12;2.72;;;;;;;21.76;26.58;100455.94;4326579;32;32870;-86
2022/04/30 09:13:19;;;;;;;4.93;3.03;;;;;;;21.41;28.88;100463.13;4339853;32;34119;-86
2022/04/30 09:16:05;;;;;;;6.15;3.97;;;;;;;21.45;29.22;100463.72;4330753;32;34673;-86
2022/04/30 09:18:39;;;;;;;5.60;3.33;;;;;;;21.72;29.11;100448.09;4339485;32;32787;-86
2022/04/30 09:21:14;;;;;;;7.40;3.20;;;;;;;21.54;29.92;100456.78;4338091;32;33020;-86
2022/04/30 09:23:44;;;;;;;3.53;3.03;;;;;;;21.67;31.10;100453.00;4342773;32;33528;-86
2022/04/30 09:26:15;;;;;;;8.38;3.60;;;;;;;21.58;28.39;100451.03;4359087;32;34651;-86
2022/04/30 09:28:45;;;;;;;7.72;3.20;;;;;;;21.49;29.32;100451.78;4334362;32;32929;-86
2022/04/30 09:31:21;;;;;;;5.57;3.33;;;;;;;21.44;27.88;100451.28;4340170;32;33015;-86
2022/04/30 09:33:56;;;;;;;4.18;2.78;;;;;;;21.39;28.11;100448.09;4339787;32;32637;-86
2022/04/30 09:39:20;;;;;;;7.70;3.10;;;;;;;22.11;26.80;100435.12;4343465;32;33595;-86
2022/04/30 09:41:48;;;;;;;4.68;3.15;;;;;;;22.30;28.05;100436.31;4328959;32;33837;-87
2022/04/30 09:44:22;;;;;;;3.95;2.97;;;;;;;22.07;27.94;100435.47;4353296;32;33822;-86
2022/04/30 09:46:56;;;;;;;4.65;3.10;;;;;;;22.12;29.92;100442.22;4341268;32;33203;-86
2022/04/30 09:57:52;;;;;;;4.95;3.47;;;;;;;22.96;25.33;100415.50;4331227;32;32819;-86
2022/04/30 10:00:21;;;;;;;3.60;2.62;;;;;;;22.12;27.19;100423.37;4344244;32;34312;-86
2022/04/30 10:02:58;;;;;;;3.83;3.40;;;;;;;22.21;28.84;100417.25;4342478;32;33410;-86
2022/04/30 10:05:30;;;;;;;4.62;3.05;;;;;;;21.91;27.01;100411.69;4338002;32;32517;-86
2022/04/30 10:07:59;;;;;;;3.08;2.53;;;;;;;22.08;27.96;100407.63;4327072;32;33593;-86
2022/04/30 10:10:45;;;;;;;5.87;3.37;;;;;;;21.91;28.12;100407.16;4323464;32;34215;-86
2022/04/30 10:13:28;;;;;;;4.78;3.45;;;;;;;22.18;29.33;100412.16;4341909;32;34740;-86
2022/04/30 10:18:42;;;;;;;4.03;3.22;;;;;;;22.69;27.82;100397.13;4330314;32;33325;-86
2022/04/30 10:21:18;;;;;;;5.35;3.65;;;;;;;22.65;28.04;100395.72;4326518;32;32643;-86
2022/04/30 10:23:48;;;;;;;7.35;3.58;;;;;;;22.96;27.61;100397.50;4329365;32;33247;-86
2022/04/30 10:26:17;;;;;;;4.72;3.25;;;;;;;22.33;27.78;100406.47;4326867;32;32780;-87
2022/04/30 10:28:46;;;;;;;15.02;3.87;;;;;;;22.52;28.08;100390.50;4355647;32;33535;-86
2022/04/30 10:31:17;;;;;;;3.60;3.28;;;;;;;22.55;27.17;100395.63;4354660;32;33758;-86
2022/04/30 10:33:50;;;;;;;6.30;3.47;;;;;;;21.97;27.54;100393.19;4345774;32;32683;-86
2022/04/30 10:39:02;;;;;;;7.05;3.58;;;;;;;22.79;26.87;100386.44;4341261;32;33192;-86
2022/04/30 10:41:43;;;;;;;5.37;3.47;;;;;;;22.91;28.46;100386.28;4355737;32;32848;-86
2022/04/30 10:44:18;;;;;;;4.28;3.03;;;;;;;22.78;27.84;100379.34;4354825;32;33966;-86
2022/04/30 10:46:48;;;;;;;6.78;3.12;;;;;;;23.06;26.71;100384.09;4343321;32;33326;-86
2022/04/30 10:49:19;;;;;;;5.27;3.20;;;;;;;22.97;26.58;100371.44;4351795;32;32515;-87
2022/04/30 10:51:54;;;;;;;4.95;2.95;;;;;;;23.25;26.17;100370.72;4354398;32;34260;-86
2022/04/30 10:54:30;;;;;;;4.05;2.78;;;;;;;23.49;23.81;100369.56;4357527;32;32704;-86
2022/04/30 10:57:05;;;;;;;5.90;3.60;;;;;;;23.39;25.04;100368.66;4343383;32;32404;-86
2022/04/30 10:59:42;;;;;;;5.05;4.07;;;;;;;23.96;25.25;100361.78;4354105;32;33084;-86
2022/04/30 11:02:15;;;;;;;12.57;3.75;;;;;;;23.36;25.97;100353.66;4357959;32;34222;-86
2022/04/30 11:04:44;;;;;;;4.53;2.37;;;;;;;23.67;24.31;100351.78;4353160;32;33732;-87
2022/04/30 11:07:14;;;;;;;4.10;3.22;;;;;;;23.47;24.99;100360.78;4328842;32;33621;-87
2022/04/30 11:09:45;;;;;;;5.35;2.45;;;;;;;22.81;26.39;100369.19;4341479;32;33930;-86
2022/04/30 11:12:16;;;;;;;4.10;3.45;;;;;;;23.63;26.05;100353.00;4360482;32;33154;-87
2022/04/30 11:14:49;;;;;;;6.90;3.25;;;;;;;23.62;24.25;100351.31;4354267;32;33520;-87
2022/04/30 11:20:05;;;;;;;2.92;2.40;;;;;;;24.31;23.18;100336.09;4355252;32;33008;-87
2022/04/30 11:22:34;;;;;;;4.07;3.03;;;;;;;24.56;21.97;100338.25;4354313;32;33420;-87
2022/04/30 11:25:05;;;;;;;5.18;3.58;;;;;;;24.63;26.69;100339.38;4345546;32;32973;-87
2022/04/30 11:27:33;;;;;;;3.60;3.30;;;;;;;24.71;24.26;100352.16;4334625;32;32323;-87
2022/04/30 11:30:05;;;;;;;4.57;3.05;;;;;;;24.31;23.23;100339.69;4348549;32;33647;-86
2022/04/30 11:32:33;;;;;;;3.60;2.75;;;;;;;24.84;22.60;100333.81;4372927;32;32539;-87
2022/04/30 11:35:03;;;;;;;4.75;2.97;;;;;;;25.19;23.62;100321.50;4355460;32;33516;-87
2022/04/30 11:37:45;;;;;;;3.35;3.05;;;;;;;25.74;21.72;100322.34;4353137;32;35049;-87
2022/04/30 11:40:32;;;;;;;5.25;3.33;;;;;;;25.33;22.22;100320.16;4356173;32;34352;-87
2022/04/30 11:43:02;;;;;;;2.95;2.12;;;;;;;25.02;22.49;100315.00;4359845;32;33315;-87
2022/04/30 11:45:36;;;;;;;2.45;2.10;;;;;;;25.19;23.56;100313.38;4345178;32;33489;-87
2022/04/30 11:48:10;;;;;;;4.28;2.72;;;;;;;24.44;20.76;100312.41;4357169;32;34094;-87
2022/04/30 11:53:19;;;;;;;6.45;3.30;;;;;;;24.60;21.14;100307.28;4356188;32;32348;-86
2022/04/30 11:55:58;;;;;;;3.08;2.87;;;;;;;24.70;22.39;100308.13;4356723;32;32820;-87
2022/04/30 11:58:40;;;;;;;2.75;2.35;;;;;;;24.36;22.10;100298.75;4360308;32;32931;-86
2022/04/30 12:01:25;;;;;;;4.15;3.00;;;;;;;25.36;20.92;100304.50;4350643;32;34688;-87
2022/04/30 12:04:11;;;;;;;3.97;2.20;;;;;;;25.01;22.25;100286.25;4349361;32;33455;-86
2022/04/30 12:06:43;;;;;;;;;;;;;;;25.25;20.92;100285.75;4349883;32;32810;-87
2022/04/30 12:09:18;;;;;;;5.87;2.87;;;;;;;24.72;25.13;100289.91;4355378;32;31781;-87
2022/04/30 12:11:50;;;;;;;2.67;2.22;;;;;;;24.86;20.42;100293.12;4348959;32;34362;-87
2022/04/30 12:14:22;;;;;;;3.03;2.67;;;;;;;25.26;19.79;100274.81;4356187;32;33127;-87
2022/04/30 12:16:53;;;;;;;2.75;2.22;;;;;;;24.71;22.49;100288.22;4362224;32;33638;-87
2022/04/30 12:24:57;;;;;;;5.70;3.15;;;;;;;23.95;24.11;100289.94;4356852;32;34494;-87
2022/04/30 12:27:28;;;;;;;2.90;2.37;;;;;;;23.85;24.62;100284.56;4346348;32;33268;-87
2022/04/30 12:30:03;;;;;;;3.20;2.92;;;;;;;24.51;21.63;100273.06;4353348;32;32694;-87
2022/04/30 12:32:35;;;;;;;5.00;2.70;;;;;;;24.50;22.18;100282.16;4353321;32;34023;-87
2022/04/30 12:35:04;;;;;;;3.72;2.55;;;;;;;24.04;22.19;100270.22;4354926;32;33739;-87
2022/04/30 12:40:22;;;;;;;5.57;2.90;;;;;;;23.51;24.96;100275.97;4361593;32;33863;-87
2022/04/30 12:42:56;;;;;;;4.28;2.45;;;;;;;23.30;23.12;100284.09;4350997;32;34587;-87
2022/04/30 12:45:26;;;;;;;3.47;3.10;;;;;;;23.30;23.23;100267.94;4330821;32;33305;-86
2022/04/30 12:47:55;;;;;;;3.95;2.37;;;;;;;23.31;24.32;100266.09;4348830;32;32752;-86
2022/04/30 12:50:23;;;;;;;4.07;2.72;;;;;;;22.61;23.40;100268.63;4354318;32;32696;-87
2022/04/30 12:52:52;;;;;;;6.12;2.90;;;;;;;22.98;23.29;100262.75;4344434;32;33013;-87